Time;durP1;ratioP1;P1;durP2;ratioP2;P2;SDS_P1;SDS_P2;PMS_P1;PMS_P2;Temp;Humidity;BMP_temperature;BMP_pressure;BME280_temperature;BME280_humidity;BME280_pressure;Samples;Min_cycle;Max_cycle;Signal;HPM_P1;HPM_P2
2023/11/20 00:00:22;;;;;;;;;;;17.60;93.20;;;;;;5033080;28;19913;-72
2023/11/20 00:02:47;;;;;;;;;;;17.60;93.00;;;;;;5033180;28;19963;-71
2023/11/20 00:05:13;;;;;;;;;;;17.70;93.20;;;;;;5032983;28;20332;-72
2023/11/20 00:07:40;;;;;;;;;;;17.60;93.20;;;;;;5032871;28;19917;-71
2023/11/20 00:10:06;;;;;;;;;;;17.70;93.20;;;;;;5033005;28;19916;-72
2023/11/20 00:12:32;;;;;;;;;;;17.60;92.70;;;;;;5032933;28;19910;-71
2023/11/20 00:14:57;;;;;;;;;;;17.70;93.10;;;;;;5032933;28;20383;-71
2023/11/20 00:17:23;;;;;;;;;;;17.70;93.20;;;;;;5032911;28;20384;-71
2023/11/20 00:19:48;;;;;;;;;;;17.70;93.10;;;;;;5032742;28;19909;-72
2023/11/20 00:22:14;;;;;;;;;;;17.80;93.10;;;;;;5032994;28;19925;-72
2023/11/20 00:24:39;;;;;;;;;;;17.80;93.10;;;;;;5032629;28;19913;-72
2023/11/20 00:27:05;;;;;;;;;;;18.70;93.40;;;;;;5032781;28;20050;-72
2023/11/20 00:29:30;;;;;;;;;;;17.70;93.10;;;;;;5032560;28;19932;-72
2023/11/20 00:31:56;;;;;;;;;;;17.80;93.20;;;;;;5032475;28;19910;-71
2023/11/20 00:34:22;;;;;;;;;;;17.80;93.10;;;;;;5032430;28;19939;-71
2023/11/20 00:36:47;;;;;;;;;;;17.70;93.10;;;;;;5032426;28;20443;-72
2023/11/20 00:39:13;;;;;;;;;;;17.70;93.10;;;;;;5032306;28;19909;-72
2023/11/20 00:41:38;;;;;;;;;;;17.70;93.00;;;;;;5032304;28;20361;-72
2023/11/20 00:44:06;;;;;;;;;;;17.70;93.10;;;;;;5032543;28;19917;-71
2023/11/20 00:46:32;;;;;;;;;;;17.70;92.50;;;;;;5032301;28;20037;-72
2023/11/20 00:48:57;;;;;;;;;;;17.90;93.20;;;;;;5032273;28;19945;-71
2023/11/20 00:51:23;;;;;;;;;;;17.70;93.00;;;;;;5032245;28;20372;-72
2023/11/20 00:53:49;;;;;;;;;;;17.70;93.00;;;;;;5032503;28;19909;-71
2023/11/20 00:56:18;;;;;;;;;;;17.70;93.10;;;;;;5032109;28;19909;-71
2023/11/20 00:58:44;;;;;;;;;;;17.60;90.70;;;;;;5032253;28;19940;-71
2023/11/20 01:01:10;;;;;;;;;;;17.60;92.80;;;;;;5032312;28;19960;-72
2023/11/20 01:03:37;;;;;;;;;;;17.60;92.90;;;;;;5032269;28;20004;-72
2023/11/20 01:06:04;;;;;;;;;;;17.70;93.00;;;;;;5032045;28;19952;-72
2023/11/20 01:08:30;;;;;;;;;;;17.70;92.50;;;;;;5032121;28;19925;-72
2023/11/20 01:10:56;;;;;;;;;;;17.70;92.90;;;;;;5032261;28;20291;-72
2023/11/20 01:13:22;;;;;;;;;;;17.70;92.80;;;;;;5032004;28;19917;-72
2023/11/20 01:15:48;;;;;;;;;;;17.70;92.90;;;;;;5032279;28;20375;-72
2023/11/20 01:18:14;;;;;;;;;;;17.70;92.90;;;;;;5032308;28;19917;-71
2023/11/20 01:20:40;;;;;;;;;;;17.40;92.90;;;;;;5031945;28;20375;-71
2023/11/20 01:23:06;;;;;;;;;;;17.60;92.80;;;;;;5031909;28;19917;-72
2023/11/20 01:25:32;;;;;;;;;;;17.70;92.90;;;;;;5031928;28;19916;-72
2023/11/20 01:27:58;;;;;;;;;;;17.70;92.80;;;;;;5032033;28;19909;-72
2023/11/20 01:30:25;;;;;;;;;;;17.60;92.90;;;;;;5031897;28;19909;-71
2023/11/20 01:32:50;;;;;;;;;;;17.70;92.80;;;;;;5032001;28;19910;-71
2023/11/20 01:35:16;;;;;;;;;;;17.60;92.80;;;;;;5031843;28;20421;-72
2023/11/20 01:37:41;;;;;;;;;;;17.60;92.50;;;;;;5032177;28;19960;-71
2023/11/20 01:40:08;;;;;;;;;;;17.70;92.80;;;;;;5031866;28;19932;-72
2023/11/20 01:42:33;;;;;;;;;;;17.60;91.90;;;;;;5031738;28;19917;-72
2023/11/20 01:44:59;;;;;;;;;;;17.60;92.80;;;;;;5031878;28;19963;-72
2023/11/20 01:47:25;;;;;;;;;;;17.60;92.80;;;;;;5031783;28;19909;-72
2023/11/20 01:49:50;;;;;;;;;;;17.60;92.70;;;;;;5032889;28;19913;-72
2023/11/20 01:52:16;;;;;;;;;;;17.60;92.80;;;;;;5035739;28;19909;-72
2023/11/20 01:54:42;;;;;;;;;;;17.60;92.70;;;;;;5035518;28;19913;-71
2023/11/20 01:57:10;;;;;;;;;;;17.60;92.70;;;;;;5035423;28;20009;-71
2023/11/20 01:59:35;;;;;;;;;;;17.70;92.80;;;;;;5035410;28;19916;-71
2023/11/20 02:02:01;;;;;;;;;;;17.60;92.60;;;;;;5035201;28;19921;-72
2023/11/20 02:04:27;;;;;;;;;;;17.60;92.70;;;;;;5035275;28;19909;-72
2023/11/20 02:06:53;;;;;;;;;;;17.50;92.60;;;;;;5035298;28;20402;-72
2023/11/20 02:09:19;;;;;;;;;;;17.60;92.80;;;;;;5035114;28;19921;-72
2023/11/20 02:11:45;;;;;;;;;;;17.60;92.70;;;;;;5035150;28;19913;-72
2023/11/20 02:14:11;;;;;;;;;;;17.70;92.90;;;;;;5035189;28;19913;-71
2023/11/20 02:16:36;;;;;;;;;;;17.60;93.10;;;;;;5035086;28;19925;-71
2023/11/20 02:19:14;;;;;;;;;;;17.60;92.90;;;;;;5035087;28;19915;-71
2023/11/20 02:21:40;;;;;;;;;;;17.60;90.70;;;;;;5034958;28;19948;-71
2023/11/20 02:24:06;;;;;;;;;;;17.60;93.00;;;;;;5035345;28;20284;-71
2023/11/20 02:26:32;;;;;;;;;;;17.70;92.30;;;;;;5035001;28;19909;-71
2023/11/20 02:29:15;;;;;;;;;;;17.60;92.70;;;;;;5034962;28;19916;-71
2023/11/20 02:31:41;;;;;;;;;;;17.60;90.60;;;;;;5035000;28;20399;-71
2023/11/20 02:34:07;;;;;;;;;;;17.60;92.80;;;;;;5034865;28;19909;-72
2023/11/20 02:36:33;;;;;;;;;;;17.60;92.80;;;;;;5034733;28;19960;-71
2023/11/20 02:38:58;;;;;;;;;;;17.60;92.70;;;;;;5034727;28;19971;-72
2023/11/20 02:41:24;;;;;;;;;;;17.60;92.80;;;;;;5034968;28;20394;-72
2023/11/20 02:43:50;;;;;;;;;;;17.60;92.80;;;;;;5034472;28;20398;-71
2023/11/20 02:46:16;;;;;;;;;;;17.60;92.80;;;;;;5034871;28;20291;-72
2023/11/20 02:48:41;;;;;;;;;;;17.60;92.80;;;;;;5034694;28;20004;-71
2023/11/20 02:51:07;;;;;;;;;;;17.70;92.90;;;;;;5034726;28;19916;-71
2023/11/20 02:53:33;;;;;;;;;;;17.70;92.70;;;;;;5034694;28;19909;-71
2023/11/20 02:55:58;;;;;;;;;;;17.60;92.90;;;;;;5034660;28;19936;-71
2023/11/20 02:58:24;;;;;;;;;;;17.60;92.90;;;;;;5034429;28;19975;-72
2023/11/20 03:00:50;;;;;;;;;;;17.60;92.80;;;;;;5033642;28;19917;-71
2023/11/20 03:03:15;;;;;;;;;;;17.60;92.80;;;;;;5033742;28;19917;-71
2023/11/20 03:05:42;;;;;;;;;;;17.70;92.80;;;;;;5034160;28;19971;-71
2023/11/20 03:08:07;;;;;;;;;;;17.60;92.70;;;;;;5034153;28;19928;-71
2023/11/20 03:10:33;;;;;;;;;;;17.60;92.70;;;;;;5034120;28;19909;-71
2023/11/20 03:12:58;;;;;;;;;;;17.60;92.70;;;;;;5034086;28;20394;-72
2023/11/20 03:15:24;;;;;;;;;;;17.60;92.60;;;;;;5034010;28;19916;-71
2023/11/20 03:17:50;;;;;;;;;;;17.60;92.70;;;;;;5033929;28;19921;-72
2023/11/20 03:20:15;;;;;;;;;;;17.50;92.60;;;;;;5033835;28;19909;-71
2023/11/20 03:22:41;;;;;;;;;;;17.60;92.60;;;;;;5033944;28;20384;-71
2023/11/20 03:25:06;;;;;;;;;;;17.60;92.70;;;;;;5033736;28;19909;-72
2023/11/20 03:27:33;;;;;;;;;;;17.60;91.80;;;;;;5033268;28;20216;-71
2023/11/20 03:29:59;;;;;;;;;;;17.80;92.80;;;;;;5033654;28;19913;-71
2023/11/20 03:32:24;;;;;;;;;;;17.60;92.70;;;;;;5033689;28;19916;-71
2023/11/20 03:34:50;;;;;;;;;;;17.70;92.80;;;;;;5033484;28;19913;-72
2023/11/20 03:37:16;;;;;;;;;;;17.70;92.70;;;;;;5033450;28;20004;-71
2023/11/20 03:39:42;;;;;;;;;;;17.30;92.70;;;;;;5033711;28;19909;-72
2023/11/20 03:42:08;;;;;;;;;;;17.50;92.50;;;;;;5033670;28;19920;-71
2023/11/20 03:44:34;;;;;;;;;;;17.60;92.80;;;;;;5033302;28;20377;-71
2023/11/20 03:47:00;;;;;;;;;;;17.40;92.50;;;;;;5033577;28;19914;-71
2023/11/20 03:49:26;;;;;;;;;;;17.90;92.80;;;;;;5033183;28;19909;-71
2023/11/20 03:51:52;;;;;;;;;;;17.60;92.70;;;;;;5033474;28;19909;-71
2023/11/20 03:54:18;;;;;;;;;;;17.60;92.60;;;;;;5033483;28;20272;-71
2023/11/20 03:56:45;;;;;;;;;;;17.60;92.70;;;;;;5033002;28;19909;-71
2023/11/20 03:59:11;;;;;;;;;;;17.50;92.70;;;;;;5033297;28;20263;-71
2023/11/20 04:01:37;;;;;;;;;;;17.50;92.40;;;;;;5033235;28;20013;-71
2023/11/20 04:04:03;;;;;;;;;;;17.60;92.80;;;;;;5033097;28;20023;-71
2023/11/20 04:06:29;;;;;;;;;;;17.60;92.30;;;;;;5032861;28;19999;-71
2023/11/20 04:08:55;;;;;;;;;;;17.60;92.50;;;;;;5032771;28;19999;-71
2023/11/20 04:11:21;;;;;;;;;;;17.70;92.60;;;;;;5033151;28;19913;-71
2023/11/20 04:13:46;;;;;;;;;;;17.50;92.70;;;;;;5032520;28;20438;-72
2023/11/20 04:16:13;;;;;;;;;;;17.50;92.60;;;;;;5033056;28;19909;-71
2023/11/20 04:18:39;;;;;;;;;;;17.60;92.80;;;;;;5032817;28;19909;-72
2023/11/20 04:21:05;;;;;;;;;;;17.50;92.60;;;;;;5032960;28;20382;-71
2023/11/20 04:23:31;;;;;;;;;;;17.60;92.50;;;;;;5032903;28;20209;-71
2023/11/20 04:25:57;;;;;;;;;;;17.60;92.60;;;;;;5032640;28;19909;-71
2023/11/20 04:28:23;;;;;;;;;;;17.50;92.70;;;;;;5032593;28;19910;-71
2023/11/20 04:30:49;;;;;;;;;;;17.70;92.60;;;;;;5032887;28;19962;-71
2023/11/20 04:33:15;;;;;;;;;;;17.50;92.60;;;;;;5032861;28;20352;-71
2023/11/20 04:35:42;;;;;;;;;;;17.50;92.60;;;;;;5032749;28;19910;-71
2023/11/20 04:38:08;;;;;;;;;;;17.20;92.50;;;;;;5032667;28;19952;-71
2023/11/20 04:40:34;;;;;;;;;;;17.50;92.90;;;;;;5032616;28;20299;-72
2023/11/20 04:43:00;;;;;;;;;;;17.50;92.70;;;;;;5032242;28;20304;-71
2023/11/20 04:45:26;;;;;;;;;;;17.50;92.60;;;;;;5032391;28;20360;-71
2023/11/20 04:47:52;;;;;;;;;;;17.40;92.60;;;;;;5032318;28;20019;-71
2023/11/20 04:50:18;;;;;;;;;;;17.50;92.60;;;;;;5032537;28;19963;-71
2023/11/20 04:52:44;;;;;;;;;;;17.40;92.60;;;;;;5032564;28;20000;-71
2023/11/20 04:55:09;;;;;;;;;;;17.50;92.60;;;;;;5032475;28;19991;-71
2023/11/20 04:57:35;;;;;;;;;;;17.40;92.50;;;;;;5032495;28;19932;-71
2023/11/20 05:00:03;;;;;;;;;;;17.50;92.60;;;;;;5032386;28;20256;-71
2023/11/20 05:08:49;;;;;;;;;;;17.40;90.30;;;;;;5012860;28;19921;-80
2023/11/20 05:11:15;;;;;;;;;;;17.60;92.60;;;;;;5012736;28;19914;-80
2023/11/20 05:13:41;;;;;;;;;;;17.40;92.50;;;;;;5012740;28;19913;-80
2023/11/20 05:16:06;;;;;;;;;;;17.40;92.70;;;;;;5012816;28;20272;-80
2023/11/20 05:18:32;;;;;;;;;;;17.40;92.50;;;;;;5012971;28;19916;-80
2023/11/20 05:20:57;;;;;;;;;;;17.60;92.70;;;;;;5012881;28;19910;-72
2023/11/20 05:23:23;;;;;;;;;;;17.40;92.60;;;;;;5012595;28;20028;-73
2023/11/20 05:25:49;;;;;;;;;;;17.50;92.70;;;;;;5015280;28;19926;-72
2023/11/20 05:28:15;;;;;;;;;;;17.30;92.50;;;;;;5016553;28;19909;-72
2023/11/20 05:30:40;;;;;;;;;;;17.40;92.60;;;;;;5016662;28;19964;-72
2023/11/20 05:33:06;;;;;;;;;;;17.60;92.70;;;;;;5016466;28;19916;-72
2023/11/20 05:35:33;;;;;;;;;;;17.40;92.80;;;;;;5017113;28;20188;-85
2023/11/20 05:37:58;;;;;;;;;;;17.20;92.70;;;;;;5016981;28;19992;-85
2023/11/20 05:40:24;;;;;;;;;;;17.40;92.80;;;;;;5016489;28;20399;-83
2023/11/20 05:42:50;;;;;;;;;;;17.50;92.80;;;;;;4998752;28;19924;-83
2023/11/20 05:45:16;;;;;;;;;;;17.40;92.90;;;;;;5016633;28;19914;-83
2023/11/20 05:47:41;;;;;;;;;;;17.40;92.80;;;;;;5016409;28;20251;-83
2023/11/20 05:50:07;;;;;;;;;;;17.40;92.90;;;;;;5016348;28;19910;-83
2023/11/20 05:52:33;;;;;;;;;;;17.40;92.30;;;;;;5016134;28;20008;-83
2023/11/20 05:54:59;;;;;;;;;;;17.40;92.70;;;;;;5016038;28;19974;-82
2023/11/20 05:57:25;;;;;;;;;;;17.40;92.60;;;;;;5015930;28;19916;-83
2023/11/20 05:59:50;;;;;;;;;;;17.40;92.90;;;;;;5015741;28;19909;-82
2023/11/20 06:02:16;;;;;;;;;;;17.40;92.60;;;;;;5015705;28;19922;-83
2023/11/20 06:04:42;;;;;;;;;;;18.40;93.10;;;;;;5016474;28;19971;-72
2023/11/20 06:07:07;;;;;;;;;;;17.50;92.80;;;;;;5016007;28;19910;-72
2023/11/20 06:09:33;;;;;;;;;;;17.40;92.60;;;;;;5015778;28;20000;-72
2023/11/20 06:11:58;;;;;;;;;;;17.50;92.80;;;;;;5015787;28;19932;-72
2023/11/20 06:14:24;;;;;;;;;;;17.40;92.60;;;;;;5015735;28;19910;-72
2023/11/20 06:16:49;;;;;;;;;;;17.40;92.50;;;;;;5015586;28;20265;-72
2023/11/20 06:19:15;;;;;;;;;;;17.40;92.80;;;;;;5015522;28;19956;-73
2023/11/20 06:21:46;;;;;;;;;;;17.50;92.80;;;;;;5015584;28;19909;-72
2023/11/20 06:24:12;;;;;;;;;;;17.50;90.50;;;;;;5016391;28;19996;-74
2023/11/20 06:26:37;;;;;;;;;;;17.40;92.60;;;;;;5022272;28;19956;-73
2023/11/20 06:29:03;;;;;;;;;;;17.40;92.60;;;;;;5015353;28;19931;-72
2023/11/20 06:31:28;;;;;;;;;;;17.50;92.80;;;;;;5015296;28;19916;-71
2023/11/20 06:33:54;;;;;;;;;;;17.50;92.80;;;;;;5015739;28;20000;-72
2023/11/20 06:36:19;;;;;;;;;;;17.50;92.60;;;;;;5015102;28;19909;-72
2023/11/20 06:38:45;;;;;;;;;;;17.50;92.80;;;;;;5015165;28;19910;-71
2023/11/20 06:41:10;;;;;;;;;;;17.50;92.70;;;;;;4997503;28;20363;-71
2023/11/20 06:43:36;;;;;;;;;;;17.40;92.70;;;;;;5015228;28;19921;-71
2023/11/20 06:46:01;;;;;;;;;;;17.80;93.10;;;;;;5015068;28;19916;-72
2023/11/20 06:48:27;;;;;;;;;;;17.50;92.70;;;;;;5014985;28;19917;-72
2023/11/20 06:50:53;;;;;;;;;;;17.50;92.70;;;;;;5014916;28;20119;-71
2023/11/20 06:53:19;;;;;;;;;;;17.40;92.60;;;;;;5015141;28;19956;-71
2023/11/20 06:55:44;;;;;;;;;;;17.50;92.70;;;;;;5014811;28;19944;-71
2023/11/20 06:58:10;;;;;;;;;;;17.40;92.80;;;;;;5014750;28;19909;-71
2023/11/20 07:00:36;;;;;;;;;;;17.50;92.70;;;;;;5014788;28;19914;-72
2023/11/20 07:03:04;;;;;;;;;;;17.40;92.50;;;;;;5014484;28;20441;-72
2023/11/20 07:05:30;;;;;;;;;;;17.60;92.60;;;;;;5014844;28;19914;-72
2023/11/20 07:07:56;;;;;;;;;;;17.50;92.80;;;;;;5014589;28;20279;-71
2023/11/20 07:10:23;;;;;;;;;;;17.60;92.70;;;;;;5014726;28;19927;-71
2023/11/20 07:12:50;;;;;;;;;;;17.40;92.80;;;;;;5014947;28;19913;-72
2023/11/20 07:15:16;;;;;;;;;;;17.40;92.80;;;;;;5014661;28;19913;-72
2023/11/20 07:17:42;;;;;;;;;;;17.40;92.60;;;;;;5014455;28;19932;-71
2023/11/20 07:20:09;;;;;;;;;;;17.40;92.70;;;;;;5014903;28;19909;-72
2023/11/20 07:22:35;;;;;;;;;;;17.40;91.60;;;;;;5014522;28;19963;-70
2023/11/20 07:25:01;;;;;;;;;;;17.30;92.60;;;;;;5014325;28;19909;-71
2023/11/20 07:27:27;;;;;;;;;;;17.30;92.60;;;;;;5014524;28;19976;-70
2023/11/20 07:29:53;;;;;;;;;;;17.40;92.60;;;;;;5014845;28;19909;-71
2023/11/20 07:32:19;;;;;;;;;;;17.40;92.60;;;;;;5014275;28;20375;-70
2023/11/20 07:34:44;;;;;;;;;;;17.40;92.60;;;;;;5014481;28;19916;-71
2023/11/20 07:37:10;;;;;;;;;;;17.40;92.60;;;;;;5014109;28;20006;-70
2023/11/20 07:39:35;;;;;;;;;;;17.20;92.40;;;;;;5014079;28;19913;-70
2023/11/20 07:42:01;;;;;;;;;;;17.40;92.50;;;;;;5014003;28;19909;-71
2023/11/20 07:44:26;;;;;;;;;;;17.40;92.60;;;;;;5013981;28;20370;-70
2023/11/20 07:46:52;;;;;;;;;;;17.30;92.50;;;;;;5013732;28;19952;-71
2023/11/20 07:49:18;;;;;;;;;;;17.40;92.60;;;;;;5014373;28;19916;-71
2023/11/20 07:51:44;;;;;;;;;;;17.50;92.40;;;;;;5014111;28;20350;-71
2023/11/20 07:54:09;;;;;;;;;;;15.90;92.20;;;;;;5013821;28;19949;-71
2023/11/20 07:56:36;;;;;;;;;;;17.40;92.50;;;;;;5014031;28;19913;-71
2023/11/20 07:59:01;;;;;;;;;;;17.40;92.50;;;;;;5013879;28;19961;-72
2023/11/20 08:01:27;;;;;;;;;;;17.30;92.30;;;;;;5013799;28;19916;-72
2023/11/20 08:03:52;;;;;;;;;;;17.40;92.50;;;;;;5013453;28;19921;-70
2023/11/20 08:06:19;;;;;;;;;;;17.30;92.40;;;;;;5013598;28;19996;-70
2023/11/20 08:08:45;;;;;;;;;;;17.40;92.40;;;;;;5013500;28;19910;-70
2023/11/20 08:11:10;;;;;;;;;;;17.30;92.30;;;;;;5013750;28;19917;-70
2023/11/20 08:13:36;;;;;;;;;;;17.50;92.30;;;;;;5013437;28;19913;-70
2023/11/20 08:16:02;;;;;;;;;;;17.40;92.30;;;;;;5013951;28;20000;-70
2023/11/20 08:18:28;;;;;;;;;;;17.30;92.50;;;;;;5013439;28;19909;-70
2023/11/20 08:20:54;;;;;;;;;;;17.30;92.20;;;;;;5013613;28;19960;-70
2023/11/20 08:23:20;;;;;;;;;;;17.50;92.30;;;;;;5013171;28;20279;-70
2023/11/20 08:25:46;;;;;;;;;;;17.40;92.30;;;;;;5013114;28;19914;-70
2023/11/20 08:28:11;;;;;;;;;;;17.30;92.40;;;;;;5013373;28;19910;-70
2023/11/20 08:30:37;;;;;;;;;;;17.30;92.30;;;;;;5013253;28;19910;-70
2023/11/20 08:33:02;;;;;;;;;;;17.30;92.20;;;;;;5013211;28;20379;-70
2023/11/20 08:35:28;;;;;;;;;;;17.30;92.10;;;;;;5013097;28;19931;-70
2023/11/20 08:37:54;;;;;;;;;;;17.40;92.30;;;;;;5013107;28;20386;-70
2023/11/20 08:40:20;;;;;;;;;;;17.40;92.30;;;;;;5013328;28;19909;-70
2023/11/20 08:42:46;;;;;;;;;;;17.50;92.30;;;;;;5013230;28;20279;-70
2023/11/20 08:45:12;;;;;;;;;;;17.50;92.30;;;;;;5013851;28;19909;-76
2023/11/20 08:47:39;;;;;;;;;;;17.30;92.30;;;;;;5013049;28;19910;-77
2023/11/20 08:50:08;;;;;;;;;;;17.40;92.30;;;;;;5013027;28;19948;-81
2023/11/20 08:52:34;;;;;;;;;;;17.40;90.20;;;;;;5012988;28;19909;-75
2023/11/20 08:54:59;;;;;;;;;;;17.60;92.50;;;;;;5012941;28;19909;-77
2023/11/20 08:57:25;;;;;;;;;;;17.40;92.50;;;;;;5013273;28;19910;-75
2023/11/20 08:59:51;;;;;;;;;;;17.40;92.40;;;;;;5012242;28;19909;-78
2023/11/20 09:02:17;;;;;;;;;;;17.30;92.20;;;;;;5012732;28;19921;-75
2023/11/20 09:04:43;;;;;;;;;;;17.40;92.50;;;;;;5013069;28;19910;-76
2023/11/20 09:07:08;;;;;;;;;;;17.40;92.50;;;;;;5015340;28;19910;-74
2023/11/20 09:09:35;;;;;;;;;;;17.40;92.50;;;;;;5012897;28;19909;-76
2023/11/20 09:12:01;;;;;;;;;;;17.40;92.50;;;;;;5013114;28;19909;-74
2023/11/20 09:14:28;;;;;;;;;;;17.40;92.60;;;;;;5013278;28;20367;-73
2023/11/20 09:16:54;;;;;;;;;;;17.40;92.50;;;;;;5013025;28;19909;-74
2023/11/20 09:19:20;;;;;;;;;;;17.50;92.70;;;;;;5012994;28;19997;-72
2023/11/20 09:21:46;;;;;;;;;;;17.40;92.90;;;;;;5012636;28;19913;-74
2023/11/20 09:24:12;;;;;;;;;;;17.60;92.60;;;;;;5012566;28;19933;-75
2023/11/20 09:26:41;;;;;;;;;;;17.50;92.70;;;;;;5012881;28;19909;-73
2023/11/20 09:29:07;;;;;;;;;;;17.40;92.40;;;;;;5012505;28;19935;-75
2023/11/20 09:31:35;;;;;;;;;;;17.50;92.70;;;;;;5012845;28;19910;-75
2023/11/20 09:34:18;;;;;;;;;;;17.50;92.50;;;;;;5011484;28;20268;-75
2023/11/20 09:36:44;;;;;;;;;;;15.80;92.10;;;;;;5012765;28;19910;-75
2023/11/20 09:39:13;;;;;;;;;;;17.50;92.50;;;;;;5012861;28;19940;-75
2023/11/20 09:41:40;;;;;;;;;;;17.60;92.60;;;;;;5013037;28;19944;-75
2023/11/20 09:44:06;;;;;;;;;;;17.60;92.60;;;;;;5012735;28;19921;-75
2023/11/20 09:46:35;;;;;;;;;;;17.60;92.50;;;;;;5012331;28;19909;-75
2023/11/20 09:49:01;;;;;;;;;;;17.70;92.60;;;;;;5012510;28;20001;-75
2023/11/20 09:51:28;;;;;;;;;;;17.70;92.70;;;;;;5012513;28;19932;-75
2023/11/20 09:53:54;;;;;;;;;;;17.60;92.70;;;;;;5012356;28;19956;-75
2023/11/20 09:56:19;;;;;;;;;;;17.70;92.60;;;;;;5012484;28;19910;-75
2023/11/20 09:58:45;;;;;;;;;;;17.90;92.70;;;;;;5012592;28;19909;-75
2023/11/20 10:01:12;;;;;;;;;;;17.70;92.60;;;;;;5012232;28;20446;-75
2023/11/20 10:03:39;;;;;;;;;;;17.70;92.40;;;;;;5012005;28;19935;-75
2023/11/20 10:06:09;;;;;;;;;;;17.70;92.60;;;;;;5012227;28;19916;-75
2023/11/20 10:08:39;;;;;;;;;;;17.70;92.50;;;;;;5012409;28;19917;-74
2023/11/20 10:11:05;;;;;;;;;;;17.80;92.50;;;;;;5014098;28;19909;-71
2023/11/20 10:13:31;;;;;;;;;;;17.90;92.40;;;;;;5015951;28;20056;-72
2023/11/20 10:15:57;;;;;;;;;;;17.90;92.60;;;;;;5015918;28;19979;-71
2023/11/20 10:18:23;;;;;;;;;;;18.00;92.60;;;;;;5015637;28;20327;-71
2023/11/20 10:20:50;;;;;;;;;;;18.00;92.20;;;;;;5015546;28;19910;-71
2023/11/20 10:23:16;;;;;;;;;;;18.00;92.50;;;;;;5015514;28;19917;-72
2023/11/20 10:25:43;;;;;;;;;;;18.00;92.40;;;;;;5015503;28;19913;-71
2023/11/20 10:28:09;;;;;;;;;;;18.10;92.40;;;;;;5015310;28;20431;-75
2023/11/20 10:30:35;;;;;;;;;;;18.10;92.30;;;;;;5015495;28;20009;-70
2023/11/20 10:33:01;;;;;;;;;;;18.20;92.20;;;;;;5015597;28;19971;-70
2023/11/20 10:35:27;;;;;;;;;;;18.30;92.30;;;;;;5015270;28;19909;-71
2023/11/20 10:38:01;;;;;;;;;;;18.40;92.30;;;;;;5015216;28;19909;-70
2023/11/20 10:40:27;;;;;;;;;;;18.30;92.00;;;;;;5022287;28;20319;-71
2023/11/20 10:42:53;;;;;;;;;;;18.40;92.40;;;;;;5014995;28;19918;-71
2023/11/20 10:45:19;;;;;;;;;;;18.30;92.20;;;;;;5015088;28;20284;-71
2023/11/20 10:47:45;;;;;;;;;;;18.40;92.30;;;;;;5015045;28;19910;-71
2023/11/20 10:50:13;;;;;;;;;;;18.40;92.00;;;;;;5014957;28;19909;-71
2023/11/20 10:52:40;;;;;;;;;;;18.50;92.30;;;;;;5014601;28;20380;-71
2023/11/20 10:55:06;;;;;;;;;;;18.50;91.90;;;;;;5014877;28;19910;-71
2023/11/20 10:57:33;;;;;;;;;;;18.50;91.70;;;;;;5014728;28;19910;-71
2023/11/20 11:00:07;;;;;;;;;;;18.80;92.20;;;;;;5014645;28;19916;-71
2023/11/20 11:02:36;;;;;;;;;;;18.60;91.80;;;;;;5017150;28;19921;-84
2023/11/20 11:05:06;;;;;;;;;;;18.60;91.80;;;;;;5014750;28;19999;-72
2023/11/20 11:07:33;;;;;;;;;;;18.70;91.80;;;;;;5015466;28;20275;-72
2023/11/20 11:09:59;;;;;;;;;;;18.80;92.00;;;;;;5014589;28;19910;-72
2023/11/20 11:12:26;;;;;;;;;;;18.70;91.80;;;;;;5014721;28;19993;-81
2023/11/20 11:14:52;;;;;;;;;;;18.80;91.90;;;;;;4996993;28;20419;-72
2023/11/20 11:17:21;;;;;;;;;;;18.80;91.80;;;;;;5014800;28;19910;-73
2023/11/20 11:19:51;;;;;;;;;;;18.90;91.80;;;;;;5014425;28;19909;-73
2023/11/20 11:22:25;;;;;;;;;;;19.00;91.70;;;;;;5013681;28;20253;-72
2023/11/20 11:24:52;;;;;;;;;;;19.10;88.70;;;;;;5014574;28;19952;-72
2023/11/20 11:27:19;;;;;;;;;;;19.00;91.70;;;;;;5014315;28;19910;-72
2023/11/20 11:29:46;;;;;;;;;;;19.00;91.20;;;;;;5014164;28;20363;-71
2023/11/20 11:32:15;;;;;;;;;;;19.10;91.60;;;;;;5014311;28;19980;-72
2023/11/20 11:34:47;;;;;;;;;;;19.10;88.30;;;;;;5014061;28;19914;-72
2023/11/20 11:37:31;;;;;;;;;;;19.10;91.20;;;;;;5014541;28;20012;-76
2023/11/20 11:39:59;;;;;;;;;;;19.20;87.90;;;;;;5014080;28;20019;-77
2023/11/20 11:42:37;;;;;;;;;;;19.20;91.40;;;;;;5013783;28;19918;-75
2023/11/20 11:45:04;;;;;;;;;;;19.20;91.30;;;;;;5013869;28;19963;-75
2023/11/20 11:47:34;;;;;;;;;;;19.20;90.90;;;;;;5014044;28;19921;-81
2023/11/20 11:50:00;;;;;;;;;;;19.30;91.40;;;;;;5014001;28;19911;-78
2023/11/20 11:52:27;;;;;;;;;;;19.30;91.40;;;;;;5013764;28;20380;-80
2023/11/20 11:55:11;;;;;;;;;;;19.30;91.20;;;;;;5013728;28;19913;-80
2023/11/20 11:57:38;;;;;;;;;;;19.40;87.70;;;;;;5013732;28;19944;-75
2023/11/20 12:00:13;;;;;;;;;;;19.40;91.30;;;;;;5013318;28;20518;-76
2023/11/20 12:02:51;;;;;;;;;;;19.40;90.90;;;;;;5012575;28;20269;-77
2023/11/20 12:05:20;;;;;;;;;;;19.40;91.10;;;;;;5013140;28;19909;-76
2023/11/20 12:07:49;;;;;;;;;;;19.70;87.90;;;;;;5012769;28;19932;-76
2023/11/20 12:10:16;;;;;;;;;;;19.50;87.70;;;;;;5012583;28;19945;-76
2023/11/20 12:12:44;;;;;;;;;;;19.40;91.30;;;;;;5013103;28;20356;-76
2023/11/20 12:15:28;;;;;;;;;;;19.40;87.50;;;;;;5012667;28;19917;-75
2023/11/20 12:17:55;;;;;;;;;;;19.50;87.70;;;;;;5013036;28;20388;-78
2023/11/20 12:20:21;;;;;;;;;;;19.50;91.30;;;;;;5012527;28;19956;-75
2023/11/20 12:22:50;;;;;;;;;;;19.50;91.50;;;;;;5012360;28;19917;-76
2023/11/20 12:25:16;;;;;;;;;;;19.50;88.00;;;;;;5012503;28;20284;-78
2023/11/20 12:27:42;;;;;;;;;;;19.60;91.30;;;;;;5012507;28;19917;-76
2023/11/20 12:30:08;;;;;;;;;;;19.50;91.50;;;;;;5012543;28;19916;-78
2023/11/20 12:32:34;;;;;;;;;;;19.40;90.30;;;;;;5012543;28;19909;-78
2023/11/20 12:35:00;;;;;;;;;;;19.30;91.20;;;;;;5012116;28;19961;-73
2023/11/20 12:37:25;;;;;;;;;;;19.40;91.50;;;;;;5012677;28;20306;-78
2023/11/20 12:39:51;;;;;;;;;;;19.30;91.40;;;;;;5012451;28;19909;-78
2023/11/20 12:42:19;;;;;;;;;;;19.30;91.60;;;;;;5012395;28;19909;-79
2023/11/20 12:44:45;;;;;;;;;;;19.30;88.80;;;;;;5012182;28;19916;-78
2023/11/20 12:47:10;;;;;;;;;;;19.20;91.80;;;;;;5012232;28;20011;-78
2023/11/20 12:49:36;;;;;;;;;;;19.20;91.80;;;;;;5012139;28;20012;-78
2023/11/20 12:52:01;;;;;;;;;;;19.10;91.90;;;;;;5012120;28;20380;-77
2023/11/20 12:54:27;;;;;;;;;;;19.10;91.70;;;;;;5011482;28;19980;-78
2023/11/20 12:56:55;;;;;;;;;;;19.10;92.00;;;;;;5011581;28;19914;-78
2023/11/20 12:59:21;;;;;;;;;;;18.90;89.60;;;;;;5011921;28;19910;-77
2023/11/20 13:01:47;;;;;;;;;;;18.90;92.00;;;;;;4945375;28;1922764;-78
2023/11/20 13:04:13;;;;;;;;;;;19.10;92.20;;;;;;5013077;28;19922;-77
2023/11/20 13:06:39;;;;;;;;;;;19.00;92.20;;;;;;5012849;28;19914;-77
2023/11/20 13:09:07;;;;;;;;;;;18.90;92.10;;;;;;5012903;28;19913;-78
2023/11/20 13:11:37;;;;;;;;;;;18.80;92.10;;;;;;5012574;28;19953;-77
2023/11/20 13:14:03;;;;;;;;;;;19.10;90.10;;;;;;5012503;28;20360;-78
2023/11/20 13:16:31;;;;;;;;;;;18.90;92.40;;;;;;5012784;28;20311;-78
2023/11/20 13:19:04;;;;;;;;;;;18.90;92.30;;;;;;5012438;28;19910;-77
2023/11/20 13:21:30;;;;;;;;;;;18.80;89.80;;;;;;5012715;28;19959;-78
2023/11/20 13:24:06;;;;;;;;;;;18.80;92.40;;;;;;5012649;28;20338;-77
2023/11/20 13:26:32;;;;;;;;;;;18.90;92.40;;;;;;5012708;28;19963;-78
2023/11/20 13:28:58;;;;;;;;;;;18.80;92.40;;;;;;5012350;28;19913;-78
2023/11/20 13:31:30;;;;;;;;;;;18.80;92.30;;;;;;5012738;28;19909;-77
2023/11/20 13:33:57;;;;;;;;;;;18.80;90.00;;;;;;5012662;28;19914;-79
2023/11/20 13:36:23;;;;;;;;;;;18.70;92.30;;;;;;4994999;28;20004;-79
2023/11/20 13:38:49;;;;;;;;;;;18.70;92.30;;;;;;5012332;28;19910;-80
2023/11/20 13:41:16;;;;;;;;;;;18.60;92.10;;;;;;5012592;28;19917;-80
2023/11/20 13:43:42;;;;;;;;;;;18.60;92.10;;;;;;5012191;28;19924;-77
2023/11/20 13:46:08;;;;;;;;;;;18.70;92.30;;;;;;5013780;28;19917;-74
2023/11/20 13:48:34;;;;;;;;;;;18.90;92.30;;;;;;5016508;28;19917;-76
2023/11/20 13:51:01;;;;;;;;;;;18.60;92.10;;;;;;5016252;28;19988;-74
2023/11/20 13:53:27;;;;;;;;;;;18.70;92.20;;;;;;5015874;28;20387;-73
2023/11/20 13:55:54;;;;;;;;;;;18.60;92.20;;;;;;5016033;28;19910;-74
2023/11/20 13:58:24;;;;;;;;;;;18.60;92.40;;;;;;5016175;28;20380;-73
2023/11/20 14:00:51;;;;;;;;;;;18.50;92.00;;;;;;5016095;28;19941;-77
2023/11/20 14:03:19;;;;;;;;;;;18.60;92.10;;;;;;5015474;28;19922;-76
2023/11/20 14:05:45;;;;;;;;;;;18.60;92.10;;;;;;5015529;28;19953;-76
2023/11/20 14:08:12;;;;;;;;;;;18.70;92.20;;;;;;5015898;28;19956;-76
2023/11/20 14:10:38;;;;;;;;;;;18.70;92.20;;;;;;5015870;28;19916;-74
2023/11/20 14:13:04;;;;;;;;;;;18.70;92.20;;;;;;5015690;28;19909;-74
2023/11/20 14:15:30;;;;;;;;;;;18.70;92.00;;;;;;5015738;28;19975;-74
2023/11/20 14:17:56;;;;;;;;;;;18.70;91.70;;;;;;5015803;28;20260;-74